Time;durP1;ratioP1;P1;durP2;ratioP2;P2;SDS_P1;SDS_P2;PMS_P1;PMS_P2;Temp;Humidity;BMP_temperature;BMP_pressure;BME280_temperature;BME280_humidity;BME280_pressure;Samples;Min_cycle;Max_cycle;Signal;HPM_P1;HPM_P2
2021/06/13 00:00:15;;;;;;;10.63;5.00;;;;;;;;;;5000082;28;20102;-66
2021/06/13 00:02:42;;;;;;;13.30;4.97;;;;;;;;;;4989518;28;20046;-66
2021/06/13 00:05:09;;;;;;;12.30;5.38;;;;;;;;;;5005553;28;20332;-66
2021/06/13 00:07:36;;;;;;;11.90;5.03;;;;;;;;;;5004050;28;20030;-66
2021/06/13 00:10:02;;;;;;;11.07;5.53;;;;;;;;;;4986439;28;20034;-66
2021/06/13 00:12:28;;;;;;;15.20;5.47;;;;;;;;;;4990503;28;20501;-66
2021/06/13 00:14:54;;;;;;;14.27;6.22;;;;;;;;;;5055754;28;20518;-66
2021/06/13 00:17:20;;;;;;;12.15;5.63;;;;;;;;;;4997977;28;20033;-66
2021/06/13 00:19:46;;;;;;;12.35;5.32;;;;;;;;;;4989309;28;20038;-66
2021/06/13 00:22:12;;;;;;;10.68;5.70;;;;;;;;;;4987371;28;20461;-66
2021/06/13 00:24:38;;;;;;;12.00;5.40;;;;;;;;;;4997907;28;20031;-66
2021/06/13 00:27:05;;;;;;;17.80;7.05;;;;;;;;;;4988535;28;20030;-66
2021/06/13 00:29:31;;;;;;;11.45;5.60;;;;;;;;;;4987923;28;20026;-66
2021/06/13 00:31:57;;;;;;;11.25;5.20;;;;;;;;;;4991147;28;20030;-66
2021/06/13 00:34:24;;;;;;;16.10;6.55;;;;;;;;;;5000704;28;20018;-67
2021/06/13 00:36:50;;;;;;;11.10;5.25;;;;;;;;;;4991566;28;20026;-66
2021/06/13 00:39:17;;;;;;;14.43;5.82;;;;;;;;;;4991681;28;20109;-67
2021/06/13 00:41:43;;;;;;;12.57;5.55;;;;;;;;;;4991445;28;20080;-66
2021/06/13 00:44:09;;;;;;;14.10;5.80;;;;;;;;;;4991461;28;20056;-66
2021/06/13 00:46:35;;;;;;;14.45;6.28;;;;;;;;;;4993700;28;20030;-66
2021/06/13 00:49:01;;;;;;;13.60;5.50;;;;;;;;;;4992800;28;20095;-66
2021/06/13 00:51:27;;;;;;;14.05;5.93;;;;;;;;;;4991116;28;20629;-66
2021/06/13 00:53:53;;;;;;;15.02;5.97;;;;;;;;;;4988881;28;20037;-66
2021/06/13 00:56:20;;;;;;;11.25;6.25;;;;;;;;;;4996283;28;20034;-66
2021/06/13 00:58:46;;;;;;;13.23;5.78;;;;;;;;;;4978385;28;20022;-66
2021/06/13 01:01:12;;;;;;;16.98;6.07;;;;;;;;;;4996911;28;20030;-66
2021/06/13 01:03:39;;;;;;;11.23;5.13;;;;;;;;;;5002322;28;20045;-67
2021/06/13 01:06:05;;;;;;;12.57;6.05;;;;;;;;;;5009198;28;20030;-66
2021/06/13 01:08:39;;;;;;;15.35;5.75;;;;;;;;;;5004220;28;20034;-66
2021/06/13 01:11:08;;;;;;;12.68;6.53;;;;;;;;;;4995743;28;20034;-67
2021/06/13 01:13:53;;;;;;;12.80;5.75;;;;;;;;;;4988057;28;20076;-67
2021/06/13 01:16:29;;;;;;;9.98;4.90;;;;;;;;;;4994849;28;20035;-66
2021/06/13 01:18:55;;;;;;;12.80;5.88;;;;;;;;;;4995142;28;20038;-66
2021/06/13 01:21:28;;;;;;;14.23;5.35;;;;;;;;;;4991111;28;20030;-66
2021/06/13 01:24:03;;;;;;;14.93;6.03;;;;;;;;;;5016225;28;20030;-66
2021/06/13 01:26:41;;;;;;;13.15;5.80;;;;;;;;;;4999572;28;20402;-66
2021/06/13 01:29:08;;;;;;;12.32;5.65;;;;;;;;;;4990948;28;20073;-66
2021/06/13 01:31:36;;;;;;;13.50;5.57;;;;;;;;;;4990805;28;20014;-66
2021/06/13 01:34:04;;;;;;;14.93;6.07;;;;;;;;;;4990544;28;20054;-66
2021/06/13 01:36:32;;;;;;;16.80;6.05;;;;;;;;;;4999493;28;20015;-66
2021/06/13 01:38:58;;;;;;;12.68;5.82;;;;;;;;;;4989905;28;20497;-66
2021/06/13 01:41:28;;;;;;;14.45;5.38;;;;;;;;;;4990763;28;20037;-66
2021/06/13 01:43:56;;;;;;;13.30;6.38;;;;;;;;;;4989627;28;20083;-66
2021/06/13 01:46:23;;;;;;;13.82;6.45;;;;;;;;;;4990939;28;20076;-66
2021/06/13 01:48:50;;;;;;;12.27;6.00;;;;;;;;;;4988414;28;20492;-66
2021/06/13 01:51:16;;;;;;;14.35;6.18;;;;;;;;;;4990343;28;20029;-66
2021/06/13 01:53:44;;;;;;;13.05;6.38;;;;;;;;;;4989174;28;20099;-67
2021/06/13 01:56:14;;;;;;;14.60;6.38;;;;;;;;;;5006311;28;20033;-66
2021/06/13 01:58:43;;;;;;;14.75;6.03;;;;;;;;;;4989930;28;20148;-66
2021/06/13 02:01:09;;;;;;;11.05;6.68;;;;;;;;;;4992178;28;20031;-66
2021/06/13 02:03:36;;;;;;;16.70;6.18;;;;;;;;;;4991171;28;20053;-67
2021/06/13 02:06:03;;;;;;;15.93;5.88;;;;;;;;;;5003571;28;20135;-67
2021/06/13 02:08:34;;;;;;;15.45;6.75;;;;;;;;;;4988535;28;20030;-66
2021/06/13 02:11:01;;;;;;;12.35;6.50;;;;;;;;;;4990426;28;20054;-66
2021/06/13 02:13:28;;;;;;;11.48;6.25;;;;;;;;;;4988781;28;20027;-66
2021/06/13 02:15:55;;;;;;;12.10;6.10;;;;;;;;;;5000609;28;20517;-66
2021/06/13 02:18:22;;;;;;;12.48;5.80;;;;;;;;;;4989779;28;20529;-66
2021/06/13 02:20:49;;;;;;;14.77;6.20;;;;;;;;;;4994969;28;20030;-67
2021/06/13 02:23:15;;;;;;;14.80;6.22;;;;;;;;;;4988719;28;20027;-66
2021/06/13 02:25:41;;;;;;;13.30;6.13;;;;;;;;;;4975332;28;20035;-66
2021/06/13 02:28:08;;;;;;;13.05;6.45;;;;;;;;;;4973884;28;20041;-67
2021/06/13 02:30:37;;;;;;;11.48;6.13;;;;;;;;;;4990120;28;20086;-67
2021/06/13 02:33:05;;;;;;;12.88;6.07;;;;;;;;;;4986375;28;20458;-67
2021/06/13 02:35:31;;;;;;;13.10;5.68;;;;;;;;;;4993043;28;20030;-67
2021/06/13 02:37:58;;;;;;;11.45;6.28;;;;;;;;;;5006598;28;20059;-66
2021/06/13 02:40:24;;;;;;;11.88;5.75;;;;;;;;;;4988336;28;20039;-67
2021/06/13 02:42:50;;;;;;;11.65;5.75;;;;;;;;;;4989444;28;20060;-66
2021/06/13 02:45:21;;;;;;;14.32;5.78;;;;;;;;;;4983768;28;20031;-66
2021/06/13 02:47:47;;;;;;;13.57;5.60;;;;;;;;;;4990332;28;20022;-67
2021/06/13 02:50:13;;;;;;;13.40;6.25;;;;;;;;;;4991111;28;20034;-66
2021/06/13 02:52:56;;;;;;;10.48;5.70;;;;;;;;;;4987101;28;20041;-66
2021/06/13 02:55:24;;;;;;;13.93;5.75;;;;;;;;;;4989959;28;20036;-66
2021/06/13 02:57:59;;;;;;;10.30;5.80;;;;;;;;;;4994064;28;20034;-67
2021/06/13 03:00:25;;;;;;;14.30;6.00;;;;;;;;;;4991479;28;20533;-67
2021/06/13 03:02:52;;;;;;;11.43;5.97;;;;;;;;;;4994976;28;20509;-67
2021/06/13 03:05:19;;;;;;;13.20;6.45;;;;;;;;;;4991516;28;20497;-67
2021/06/13 03:07:46;;;;;;;11.48;5.25;;;;;;;;;;4995472;28;20026;-66
2021/06/13 03:10:12;;;;;;;11.32;5.88;;;;;;;;;;4989341;28;20117;-66
2021/06/13 03:12:39;;;;;;;11.68;5.72;;;;;;;;;;4990706;28;20038;-66
2021/06/13 03:15:05;;;;;;;9.23;5.38;;;;;;;;;;4987346;28;20050;-66
2021/06/13 03:17:31;;;;;;;13.73;5.05;;;;;;;;;;4979853;28;20034;-66
2021/06/13 03:19:58;;;;;;;10.57;5.80;;;;;;;;;;4988697;28;20041;-67
2021/06/13 03:22:24;;;;;;;11.30;5.70;;;;;;;;;;4985713;28;20034;-67
2021/06/13 03:24:51;;;;;;;11.32;6.00;;;;;;;;;;4990975;28;20030;-67
2021/06/13 03:27:18;;;;;;;12.65;5.80;;;;;;;;;;4988889;28;20038;-66
2021/06/13 03:29:46;;;;;;;12.75;5.60;;;;;;;;;;4991512;28;20521;-67
2021/06/13 03:32:13;;;;;;;12.10;5.68;;;;;;;;;;4994509;28;20029;-66
2021/06/13 03:34:39;;;;;;;10.50;5.55;;;;;;;;;;4995289;28;20034;-66
2021/06/13 03:37:06;;;;;;;11.05;5.57;;;;;;;;;;5001460;28;20092;-66
2021/06/13 03:39:33;;;;;;;14.15;6.05;;;;;;;;;;4999511;28;20031;-67
2021/06/13 03:42:00;;;;;;;9.52;5.63;;;;;;;;;;4987076;28;20049;-67
2021/06/13 03:44:26;;;;;;;13.35;6.30;;;;;;;;;;4991763;28;20421;-67
2021/06/13 03:46:54;;;;;;;14.55;5.97;;;;;;;;;;5003228;28;20083;-66
2021/06/13 03:49:20;;;;;;;12.77;5.90;;;;;;;;;;4988451;28;20035;-67
2021/06/13 03:51:47;;;;;;;9.00;5.18;;;;;;;;;;4993748;28;20022;-69
2021/06/13 03:54:13;;;;;;;13.63;6.05;;;;;;;;;;4992724;28;20034;-66
2021/06/13 03:56:40;;;;;;;12.02;5.70;;;;;;;;;;4990529;28;20070;-67
2021/06/13 03:59:08;;;;;;;12.30;5.35;;;;;;;;;;5003780;28;20023;-66
2021/06/13 04:01:36;;;;;;;13.70;5.57;;;;;;;;;;4990600;28;20103;-67
2021/06/13 04:04:02;;;;;;;10.07;5.60;;;;;;;;;;4989485;28;20195;-67
2021/06/13 04:06:28;;;;;;;13.48;5.90;;;;;;;;;;4991521;28;20041;-67
2021/06/13 04:08:55;;;;;;;13.25;5.65;;;;;;;;;;4996415;28;20445;-66
2021/06/13 04:11:22;;;;;;;15.48;5.70;;;;;;;;;;4991742;28;20049;-66
2021/06/13 04:13:49;;;;;;;10.52;6.28;;;;;;;;;;4990647;28;20033;-67
2021/06/13 04:16:16;;;;;;;12.35;6.40;;;;;;;;;;5000659;28;20044;-67
2021/06/13 04:18:43;;;;;;;14.05;5.88;;;;;;;;;;5011039;28;20053;-67
2021/06/13 04:21:10;;;;;;;10.90;5.38;;;;;;;;;;5001179;28;20109;-67
2021/06/13 04:23:37;;;;;;;12.65;5.68;;;;;;;;;;4998060;28;20037;-67
2021/06/13 04:26:03;;;;;;;14.40;5.38;;;;;;;;;;4991268;28;20022;-67
2021/06/13 04:28:29;;;;;;;15.77;6.88;;;;;;;;;;4991727;28;20018;-67
2021/06/13 04:31:05;;;;;;;11.73;5.90;;;;;;;;;;4998104;28;20018;-66
2021/06/13 04:33:32;;;;;;;13.40;6.45;;;;;;;;;;5004016;28;20032;-67
2021/06/13 04:35:58;;;;;;;13.18;6.40;;;;;;;;;;4989518;28;20026;-67
2021/06/13 04:38:24;;;;;;;16.85;7.22;;;;;;;;;;4991404;28;20041;-67
2021/06/13 04:40:50;;;;;;;16.40;6.88;;;;;;;;;;4991152;28;20042;-66
2021/06/13 04:43:17;;;;;;;15.27;6.18;;;;;;;;;;4991963;28;20027;-66
2021/06/13 04:45:43;;;;;;;12.13;6.50;;;;;;;;;;4999859;28;20030;-67
2021/06/13 04:48:09;;;;;;;12.55;6.22;;;;;;;;;;5000789;28;20464;-67
2021/06/13 04:50:35;;;;;;;15.32;6.18;;;;;;;;;;4996318;28;20034;-67
2021/06/13 04:53:02;;;;;;;14.57;7.35;;;;;;;;;;5004930;28;20022;-67
2021/06/13 04:55:44;;;;;;;10.43;5.85;;;;;;;;;;4995199;28;20029;-67
2021/06/13 04:58:26;;;;;;;12.35;6.25;;;;;;;;;;4981591;28;20054;-67
2021/06/13 05:00:52;;;;;;;15.48;6.82;;;;;;;;;;4990375;28;20032;-67
2021/06/13 05:03:19;;;;;;;19.20;7.85;;;;;;;;;;5000923;28;20421;-67
2021/06/13 05:05:45;;;;;;;15.60;7.13;;;;;;;;;;4993518;28;20485;-67
2021/06/13 05:08:11;;;;;;;12.38;6.60;;;;;;;;;;4990887;28;20488;-67
2021/06/13 05:10:37;;;;;;;11.07;5.95;;;;;;;;;;4999212;28;20049;-67
2021/06/13 05:13:13;;;;;;;13.45;6.00;;;;;;;;;;4989817;28;20022;-67
2021/06/13 05:15:39;;;;;;;15.25;6.43;;;;;;;;;;4987489;28;20041;-67
2021/06/13 05:18:05;;;;;;;13.60;6.57;;;;;;;;;;4989965;28;20034;-67
2021/06/13 05:20:31;;;;;;;15.20;6.25;;;;;;;;;;4990284;28;20037;-67
2021/06/13 05:23:02;;;;;;;18.77;6.75;;;;;;;;;;4988498;28;20072;-67
2021/06/13 05:25:30;;;;;;;11.82;5.55;;;;;;;;;;4983478;28;20019;-67
2021/06/13 05:27:56;;;;;;;9.98;5.20;;;;;;;;;;4990964;28;20107;-67
2021/06/13 05:30:23;;;;;;;14.43;6.05;;;;;;;;;;4997533;28;20049;-66
2021/06/13 05:32:49;;;;;;;11.20;4.85;;;;;;;;;;5000974;28;20489;-67
2021/06/13 05:35:15;;;;;;;13.82;5.55;;;;;;;;;;4993041;28;20121;-67
2021/06/13 05:37:41;;;;;;;16.80;5.78;;;;;;;;;;4994828;28;20467;-66
2021/06/13 05:40:08;;;;;;;17.27;6.35;;;;;;;;;;4996018;28;20038;-67
2021/06/13 05:42:34;;;;;;;12.82;5.82;;;;;;;;;;4989433;28;20022;-66
2021/06/13 05:45:01;;;;;;;16.85;5.40;;;;;;;;;;4990399;28;20022;-67
2021/06/13 05:47:27;;;;;;;16.95;5.75;;;;;;;;;;5003547;28;20105;-66
2021/06/13 05:49:53;;;;;;;15.10;5.80;;;;;;;;;;4988128;28;20058;-66
2021/06/13 05:52:19;;;;;;;11.38;5.70;;;;;;;;;;4981709;28;20057;-67
2021/06/13 05:54:45;;;;;;;11.05;4.47;;;;;;;;;;4979029;28;20103;-66
2021/06/13 05:57:11;;;;;;;11.80;5.00;;;;;;;;;;4985689;28;20508;-67
2021/06/13 05:59:37;;;;;;;10.82;4.30;;;;;;;;;;4977746;28;20074;-66
2021/06/13 06:02:03;;;;;;;12.63;5.05;;;;;;;;;;5000814;28;20038;-67
2021/06/13 06:04:29;;;;;;;12.15;4.65;;;;;;;;;;4988437;28;20027;-66
2021/06/13 06:06:55;;;;;;;12.10;4.85;;;;;;;;;;4986790;28;20023;-67
2021/06/13 06:09:21;;;;;;;9.70;3.83;;;;;;;;;;4990564;28;20030;-67
2021/06/13 06:11:47;;;;;;;11.40;4.57;;;;;;;;;;4999737;28;20087;-67
2021/06/13 06:14:13;;;;;;;12.38;4.93;;;;;;;;;;5008371;28;20041;-66
2021/06/13 06:16:39;;;;;;;13.05;5.45;;;;;;;;;;4989854;28;20113;-66
2021/06/13 06:19:05;;;;;;;8.50;3.65;;;;;;;;;;4990584;28;20054;-66
2021/06/13 06:21:31;;;;;;;10.05;4.85;;;;;;;;;;4991035;28;20038;-66
2021/06/13 06:23:57;;;;;;;6.97;3.90;;;;;;;;;;4987915;28;20034;-66
2021/06/13 06:26:23;;;;;;;14.52;4.50;;;;;;;;;;5037943;28;20038;-66
2021/06/13 06:28:49;;;;;;;15.07;3.90;;;;;;;;;;4988031;28;20030;-66
2021/06/13 06:31:16;;;;;;;9.93;4.18;;;;;;;;;;4983767;28;20026;-66
2021/06/13 06:33:42;;;;;;;12.35;3.83;;;;;;;;;;4992463;28;20079;-66
2021/06/13 06:36:08;;;;;;;9.57;3.63;;;;;;;;;;4989552;28;20022;-66
2021/06/13 06:38:34;;;;;;;10.30;3.95;;;;;;;;;;4990244;28;20022;-66
2021/06/13 06:41:00;;;;;;;12.02;4.30;;;;;;;;;;4988478;28;20026;-67
2021/06/13 06:43:27;;;;;;;9.07;3.70;;;;;;;;;;4985680;28;20027;-66
2021/06/13 06:45:53;;;;;;;11.63;3.92;;;;;;;;;;4983546;28;20034;-66
2021/06/13 06:48:19;;;;;;;11.30;3.40;;;;;;;;;;4984162;28;20034;-66
2021/06/13 06:50:45;;;;;;;26.02;4.22;;;;;;;;;;4981941;28;20027;-66
2021/06/13 06:53:11;;;;;;;11.65;4.22;;;;;;;;;;4986377;28;20026;-66
2021/06/13 06:55:37;;;;;;;11.35;3.40;;;;;;;;;;4986514;28;20048;-66
2021/06/13 06:58:04;;;;;;;12.48;4.10;;;;;;;;;;4989596;28;20022;-66
2021/06/13 07:00:30;;;;;;;10.88;3.83;;;;;;;;;;4987536;28;20038;-66
2021/06/13 07:02:57;;;;;;;11.75;3.90;;;;;;;;;;4992672;28;20062;-66
2021/06/13 07:05:23;;;;;;;11.90;4.20;;;;;;;;;;4987942;28;20402;-66
2021/06/13 07:07:49;;;;;;;8.23;3.67;;;;;;;;;;4996717;28;20026;-66
2021/06/13 07:10:15;;;;;;;14.50;4.10;;;;;;;;;;5006347;28;20037;-66
2021/06/13 07:12:42;;;;;;;8.38;3.38;;;;;;;;;;5004962;28;20026;-66
2021/06/13 07:15:08;;;;;;;11.18;4.45;;;;;;;;;;4988403;28;20034;-66
2021/06/13 07:17:35;;;;;;;11.25;3.58;;;;;;;;;;4987379;28;20030;-66
2021/06/13 07:20:02;;;;;;;12.95;3.80;;;;;;;;;;4984755;28;20029;-66
2021/06/13 07:22:28;;;;;;;9.23;3.35;;;;;;;;;;4986047;28;20022;-66
2021/06/13 07:24:54;;;;;;;12.02;3.85;;;;;;;;;;4987803;28;20026;-65
2021/06/13 07:27:21;;;;;;;10.27;3.42;;;;;;;;;;4986921;28;20075;-66
2021/06/13 07:29:47;;;;;;;14.05;3.80;;;;;;;;;;4982628;28;20065;-66
2021/06/13 07:32:13;;;;;;;10.60;4.32;;;;;;;;;;4984950;28;20029;-66
2021/06/13 07:34:39;;;;;;;9.77;3.78;;;;;;;;;;4985849;28;20488;-66
2021/06/13 07:37:06;;;;;;;11.05;3.20;;;;;;;;;;4983602;28;20034;-66
2021/06/13 07:39:33;;;;;;;12.45;3.25;;;;;;;;;;4985345;28;20094;-66
2021/06/13 07:41:59;;;;;;;12.20;4.28;;;;;;;;;;4986026;28;20531;-65
2021/06/13 07:44:28;;;;;;;11.00;4.20;;;;;;;;;;4986689;28;20014;-66
2021/06/13 07:46:55;;;;;;;10.45;3.38;;;;;;;;;;4986068;28;20045;-66
2021/06/13 07:49:21;;;;;;;25.73;5.03;;;;;;;;;;4980945;28;20609;-66
2021/06/13 07:51:47;;;;;;;12.38;3.65;;;;;;;;;;4980196;28;20385;-66
2021/06/13 07:54:13;;;;;;;11.50;4.65;;;;;;;;;;4980199;28;20506;-65
2021/06/13 07:56:39;;;;;;;9.85;3.70;;;;;;;;;;4978053;28;20030;-66
2021/06/13 07:59:05;;;;;;;9.95;3.80;;;;;;;;;;4977279;28;20030;-65
2021/06/13 08:01:31;;;;;;;9.82;3.15;;;;;;;;;;4975460;28;20035;-66
2021/06/13 08:03:58;;;;;;;8.93;3.58;;;;;;;;;;4978377;28;20078;-66
2021/06/13 08:06:24;;;;;;;9.45;4.40;;;;;;;;;;4985243;28;20030;-66
2021/06/13 08:08:50;;;;;;;8.32;3.58;;;;;;;;;;4983234;28;20022;-66
2021/06/13 08:11:16;;;;;;;11.25;3.88;;;;;;;;;;4981571;28;20056;-65
2021/06/13 08:13:42;;;;;;;10.65;4.15;;;;;;;;;;4984344;28;20813;-66
2021/06/13 08:16:09;;;;;;;11.25;4.22;;;;;;;;;;4981161;28;20034;-66
2021/06/13 08:18:35;;;;;;;9.57;4.15;;;;;;;;;;4984281;28;20045;-66
2021/06/13 08:21:01;;;;;;;12.85;4.88;;;;;;;;;;4984749;28;20382;-64
2021/06/13 08:23:29;;;;;;;21.52;4.50;;;;;;;;;;4985244;28;20019;-65
2021/06/13 08:25:55;;;;;;;13.02;4.95;;;;;;;;;;4988836;28;20101;-66
2021/06/13 08:28:21;;;;;;;10.65;4.05;;;;;;;;;;4984655;28;20050;-65
2021/06/13 08:30:47;;;;;;;15.15;4.53;;;;;;;;;;4984922;28;20100;-65
2021/06/13 08:33:14;;;;;;;9.93;3.90;;;;;;;;;;4986325;28;20031;-66
2021/06/13 08:35:40;;;;;;;13.93;4.20;;;;;;;;;;4987316;28;20034;-66
2021/06/13 08:38:06;;;;;;;11.13;4.32;;;;;;;;;;4985531;28;20060;-66
2021/06/13 08:40:32;;;;;;;12.68;4.30;;;;;;;;;;4984249;28;20026;-65
2021/06/13 08:42:59;;;;;;;9.82;3.63;;;;;;;;;;4985903;28;20090;-66
2021/06/13 08:45:25;;;;;;;10.57;3.92;;;;;;;;;;4984282;28;20027;-66
2021/06/13 08:47:54;;;;;;;13.85;3.72;;;;;;;;;;4983936;28;20504;-65
2021/06/13 08:50:20;;;;;;;8.23;3.47;;;;;;;;;;4983789;28;20034;-66
2021/06/13 08:52:50;;;;;;;11.63;3.83;;;;;;;;;;4987688;28;20504;-66
2021/06/13 08:55:16;;;;;;;15.82;4.38;;;;;;;;;;4990599;28;20022;-65
2021/06/13 08:57:42;;;;;;;11.95;3.63;;;;;;;;;;4987167;28;20022;-66
2021/06/13 09:00:09;;;;;;;16.95;4.18;;;;;;;;;;4989078;28;20043;-65
2021/06/13 09:02:35;;;;;;;16.73;4.50;;;;;;;;;;4986334;28;20034;-65
2021/06/13 09:05:02;;;;;;;13.73;3.60;;;;;;;;;;4988342;28;20121;-65
2021/06/13 09:07:28;;;;;;;8.48;3.53;;;;;;;;;;4987868;28;20327;-66
2021/06/13 09:09:54;;;;;;;11.07;3.35;;;;;;;;;;4983621;28;20276;-66
2021/06/13 09:12:21;;;;;;;13.02;4.38;;;;;;;;;;4986470;28;20499;-66
2021/06/13 09:14:50;;;;;;;15.75;3.97;;;;;;;;;;4989923;28;20030;-66
2021/06/13 09:17:28;;;;;;;12.13;3.45;;;;;;;;;;4990507;28;20042;-66
2021/06/13 09:20:20;;;;;;;9.80;3.53;;;;;;;;;;4996617;28;20555;-65
2021/06/13 09:23:06;;;;;;;11.88;3.80;;;;;;;;;;4990020;28;20054;-66
2021/06/13 09:25:33;;;;;;;10.70;3.53;;;;;;;;;;4997577;28;20026;-65
2021/06/13 09:28:17;;;;;;;13.13;3.88;;;;;;;;;;4976418;28;20321;-65
2021/06/13 09:30:44;;;;;;;14.75;4.03;;;;;;;;;;4981350;28;20026;-65
2021/06/13 09:33:15;;;;;;;10.43;3.70;;;;;;;;;;4995907;28;20026;-66
2021/06/13 09:35:42;;;;;;;15.48;4.32;;;;;;;;;;4987821;28;20042;-65
2021/06/13 09:38:08;;;;;;;11.10;4.55;;;;;;;;;;4989148;28;20035;-65
2021/06/13 09:40:35;;;;;;;11.30;4.10;;;;;;;;;;4981115;28;20027;-65
2021/06/13 09:43:18;;;;;;;13.30;4.10;;;;;;;;;;4981179;28;20022;-65
2021/06/13 09:45:52;;;;;;;11.30;4.15;;;;;;;;;;4988641;28;20042;-65
2021/06/13 09:48:18;;;;;;;14.45;4.25;;;;;;;;;;4987377;28;20546;-65
2021/06/13 09:50:45;;;;;;;14.32;4.25;;;;;;;;;;4985584;28;20401;-65
2021/06/13 09:53:31;;;;;;;8.90;3.67;;;;;;;;;;4981615;28;20041;-66
2021/06/13 09:56:11;;;;;;;11.13;3.63;;;;;;;;;;4987942;28;20014;-66
2021/06/13 09:58:46;;;;;;;10.70;4.35;;;;;;;;;;4994782;28;20034;-65
2021/06/13 10:01:12;;;;;;;18.17;4.45;;;;;;;;;;4984056;28;20037;-64
2021/06/13 10:03:38;;;;;;;12.45;4.32;;;;;;;;;;4988088;28;20133;-65
2021/06/13 10:06:06;;;;;;;10.10;4.40;;;;;;;;;;4988092;28;20030;-65
2021/06/13 10:08:32;;;;;;;12.15;4.30;;;;;;;;;;4985755;28;20050;-66
2021/06/13 10:10:59;;;;;;;15.43;5.07;;;;;;;;;;4985502;28;20038;-66
2021/06/13 10:13:45;;;;;;;16.33;4.70;;;;;;;;;;4988372;28;20041;-67
2021/06/13 10:16:21;;;;;;;10.57;4.50;;;;;;;;;;4991425;28;20019;-65
2021/06/13 10:18:52;;;;;;;11.07;3.97;;;;;;;;;;4983448;28;20524;-65
2021/06/13 10:21:18;;;;;;;14.30;4.47;;;;;;;;;;4989567;28;20489;-65
2021/06/13 10:23:45;;;;;;;9.45;3.60;;;;;;;;;;4989423;28;20424;-66
2021/06/13 10:26:11;;;;;;;15.45;4.28;;;;;;;;;;4984712;28;20047;-65
2021/06/13 10:28:37;;;;;;;10.95;4.03;;;;;;;;;;4991003;28;20073;-65
2021/06/13 10:31:04;;;;;;;11.30;3.90;;;;;;;;;;4985036;28;20132;-66
2021/06/13 10:33:30;;;;;;;12.77;4.63;;;;;;;;;;4979673;28;20085;-65
2021/06/13 10:36:00;;;;;;;11.60;4.70;;;;;;;;;;5010038;28;20083;-66
2021/06/13 10:38:27;;;;;;;11.38;4.22;;;;;;;;;;4993526;28;20079;-65
2021/06/13 10:40:53;;;;;;;12.55;4.55;;;;;;;;;;4983662;28;20086;-66
2021/06/13 10:43:28;;;;;;;11.60;4.40;;;;;;;;;;4980110;28;20215;-65
2021/06/13 10:46:04;;;;;;;11.05;5.07;;;;;;;;;;4975691;28;20051;-66
2021/06/13 10:48:41;;;;;;;12.73;5.45;;;;;;;;;;4997481;28;20026;-65
2021/06/13 10:51:36;;;;;;;11.02;4.63;;;;;;;;;;4985414;28;20029;-65
2021/06/13 10:54:21;;;;;;;13.48;5.88;;;;;;;;;;4999185;28;20577;-65
2021/06/13 10:56:51;;;;;;;13.95;5.35;;;;;;;;;;4975190;28;20022;-66
2021/06/13 10:59:18;;;;;;;11.32;5.18;;;;;;;;;;4983722;28;20037;-65
2021/06/13 11:01:58;;;;;;;14.02;4.93;;;;;;;;;;4983300;28;20042;-64
2021/06/13 11:04:42;;;;;;;13.25;5.85;;;;;;;;;;4989261;28;20035;-65
2021/06/13 11:07:08;;;;;;;15.88;6.80;;;;;;;;;;4987936;28;20023;-64
2021/06/13 11:09:54;;;;;;;15.40;5.72;;;;;;;;;;4986661;28;20109;-65
2021/06/13 11:12:40;;;;;;;14.45;5.30;;;;;;;;;;4975461;28;20042;-65
2021/06/13 11:15:06;;;;;;;9.50;5.00;;;;;;;;;;4997199;28;20034;-66
2021/06/13 11:17:51;;;;;;;15.27;5.28;;;;;;;;;;4996143;28;20034;-65
2021/06/13 11:22:56;;;;;;;15.32;4.82;;;;;;;;;;4983117;28;20034;-65
2021/06/13 11:25:25;;;;;;;9.07;4.72;;;;;;;;;;5009314;28;20512;-67
2021/06/13 11:28:10;;;;;;;11.38;5.15;;;;;;;;;;4991966;28;20018;-65
2021/06/13 11:30:40;;;;;;;13.10;4.72;;;;;;;;;;4984097;28;20019;-65
2021/06/13 11:33:06;;;;;;;12.18;4.57;;;;;;;;;;4985905;28;20023;-66
2021/06/13 11:35:39;;;;;;;11.98;4.25;;;;;;;;;;4991923;28;20029;-66
2021/06/13 11:38:08;;;;;;;14.90;4.80;;;;;;;;;;4987924;28;20034;-66
2021/06/13 11:40:34;;;;;;;9.63;4.75;;;;;;;;;;4987095;28;20318;-66
2021/06/13 11:43:11;;;;;;;9.93;3.90;;;;;;;;;;4984298;28;20026;-66
2021/06/13 11:45:37;;;;;;;11.02;4.35;;;;;;;;;;4980544;28;20031;-65
2021/06/13 11:48:17;;;;;;;10.65;4.68;;;;;;;;;;4996366;28;20041;-66
2021/06/13 11:50:44;;;;;;;13.93;5.47;;;;;;;;;;4980347;28;20038;-66
2021/06/13 11:53:11;;;;;;;13.23;4.80;;;;;;;;;;4986723;28;20018;-67
2021/06/13 11:55:56;;;;;;;11.10;4.85;;;;;;;;;;4981348;28;20057;-66
2021/06/13 11:58:23;;;;;;;11.18;3.85;;;;;;;;;;4976801;28;20202;-66
2021/06/13 12:00:53;;;;;;;14.95;4.13;;;;;;;;;;4976956;28;20019;-66
2021/06/13 12:03:20;;;;;;;10.70;3.70;;;;;;;;;;4978992;28;20050;-66
2021/06/13 12:05:46;;;;;;;12.13;4.63;;;;;;;;;;5000666;28;20022;-66
2021/06/13 12:08:12;;;;;;;11.48;3.80;;;;;;;;;;4981838;28;20048;-67
2021/06/13 12:10:43;;;;;;;12.00;4.68;;;;;;;;;;4979803;28;20584;-66
2021/06/13 12:13:10;;;;;;;7.95;3.58;;;;;;;;;;4978829;28;20022;-66
2021/06/13 12:15:36;;;;;;;9.68;4.38;;;;;;;;;;5000081;28;20024;-66
2021/06/13 12:18:03;;;;;;;9.00;4.40;;;;;;;;;;4985203;28;20031;-67
2021/06/13 12:20:29;;;;;;;14.85;3.95;;;;;;;;;;4981058;28;20548;-66
2021/06/13 12:23:06;;;;;;;10.30;4.43;;;;;;;;;;4979496;28;20027;-66
2021/06/13 12:28:17;;;;;;;7.97;3.78;;;;;;;;;;4983633;28;20049;-65
2021/06/13 12:30:44;;;;;;;10.43;4.55;;;;;;;;;;4985065;28;20034;-66
2021/06/13 12:33:12;;;;;;;10.27;4.38;;;;;;;;;;4990016;28;20027;-65
2021/06/13 12:35:38;;;;;;;13.93;4.68;;;;;;;;;;4988243;28;20033;-65
2021/06/13 12:38:08;;;;;;;9.00;4.25;;;;;;;;;;4986803;28;20075;-66
2021/06/13 12:40:37;;;;;;;10.80;4.30;;;;;;;;;;4981135;28;20030;-65
2021/06/13 12:43:04;;;;;;;10.02;4.30;;;;;;;;;;4982089;28;20509;-66
2021/06/13 12:45:30;;;;;;;9.45;3.85;;;;;;;;;;4985659;28;20023;-65
2021/06/13 12:48:00;;;;;;;11.77;4.13;;;;;;;;;;4984751;28;20022;-66
2021/06/13 12:50:26;;;;;;;8.57;4.50;;;;;;;;;;4985048;28;20038;-66
2021/06/13 12:52:54;;;;;;;11.40;4.88;;;;;;;;;;4999268;28;20534;-66
2021/06/13 12:55:20;;;;;;;10.05;4.45;;;;;;;;;;4990441;28;20034;-66
2021/06/13 12:57:47;;;;;;;14.93;5.47;;;;;;;;;;4986210;28;20046;-66
2021/06/13 13:00:14;;;;;;;13.13;5.07;;;;;;;;;;4988282;28;20035;-65
2021/06/13 13:02:40;;;;;;;13.10;4.85;;;;;;;;;;4989214;28;20042;-65
2021/06/13 13:05:14;;;;;;;11.05;4.63;;;;;;;;;;4993349;28;20088;-66
2021/06/13 13:07:42;;;;;;;10.25;4.95;;;;;;;;;;4984334;28;20022;-66
2021/06/13 13:10:10;;;;;;;10.02;4.75;;;;;;;;;;4975036;28;20026;-65
2021/06/13 13:12:38;;;;;;;11.05;4.40;;;;;;;;;;5000851;28;20113;-66
2021/06/13 13:15:13;;;;;;;10.70;4.38;;;;;;;;;;4978540;28;20529;-65
2021/06/13 13:17:40;;;;;;;12.00;4.35;;;;;;;;;;4994763;28;20536;-65
2021/06/13 13:20:15;;;;;;;11.88;4.90;;;;;;;;;;4982601;28;20528;-65
2021/06/13 13:22:45;;;;;;;11.95;4.22;;;;;;;;;;4986987;28;20122;-66
2021/06/13 13:25:14;;;;;;;11.80;4.75;;;;;;;;;;4997908;28;20045;-65
2021/06/13 13:27:41;;;;;;;13.52;4.95;;;;;;;;;;4990810;28;20033;-65
2021/06/13 13:30:27;;;;;;;10.88;5.15;;;;;;;;;;4988270;28;20037;-66
2021/06/13 13:32:59;;;;;;;11.07;4.50;;;;;;;;;;4983752;28;20053;-65
2021/06/13 13:35:35;;;;;;;10.73;4.90;;;;;;;;;;4988684;28;20021;-65
2021/06/13 13:38:02;;;;;;;11.77;4.47;;;;;;;;;;4988178;28;20034;-66
2021/06/13 13:40:28;;;;;;;9.82;4.22;;;;;;;;;;4993012;28;20038;-65
2021/06/13 13:42:55;;;;;;;10.15;4.40;;;;;;;;;;4984381;28;20068;-64
2021/06/13 13:45:28;;;;;;;10.20;3.90;;;;;;;;;;5003415;28;20460;-65
2021/06/13 13:47:55;;;;;;;10.35;4.55;;;;;;;;;;4993030;28;20083;-64
2021/06/13 13:50:34;;;;;;;12.75;4.63;;;;;;;;;;4987709;28;20022;-66
2021/06/13 13:53:13;;;;;;;13.00;4.75;;;;;;;;;;4990840;28;20030;-66
2021/06/13 13:55:46;;;;;;;14.73;4.30;;;;;;;;;;4985832;28;20516;-64
2021/06/13 13:58:14;;;;;;;8.88;3.47;;;;;;;;;;4980886;28;20632;-65
2021/06/13 14:00:40;;;;;;;11.35;4.50;;;;;;;;;;4983316;28;20138;-65
2021/06/13 14:03:06;;;;;;;10.13;4.18;;;;;;;;;;4983163;28;20046;-65
2021/06/13 14:05:32;;;;;;;11.30;4.68;;;;;;;;;;4988462;28;20573;-65
2021/06/13 14:07:58;;;;;;;11.20;4.35;;;;;;;;;;4988241;28;20039;-65
2021/06/13 14:10:25;;;;;;;13.60;5.00;;;;;;;;;;4984854;28;20071;-65
2021/06/13 14:12:51;;;;;;;10.05;4.78;;;;;;;;;;4995016;28;20412;-64
2021/06/13 14:15:17;;;;;;;11.07;4.40;;;;;;;;;;4992033;28;20631;-64
2021/06/13 14:17:43;;;;;;;11.63;4.72;;;;;;;;;;4992271;28;20106;-64
2021/06/13 14:20:09;;;;;;;9.55;4.75;;;;;;;;;;4993439;28;20040;-64
2021/06/13 14:22:35;;;;;;;11.57;4.10;;;;;;;;;;4995397;28;20493;-64
2021/06/13 14:25:01;;;;;;;11.75;4.25;;;;;;;;;;4990864;28;20030;-64
2021/06/13 14:27:27;;;;;;;12.00;4.03;;;;;;;;;;4986141;28;20026;-65
2021/06/13 14:29:53;;;;;;;11.52;4.50;;;;;;;;;;4996611;28;20026;-65
2021/06/13 14:32:19;;;;;;;7.70;4.53;;;;;;;;;;4983986;28;20035;-64
2021/06/13 14:34:45;;;;;;;10.73;4.28;;;;;;;;;;4994449;28;20037;-63
2021/06/13 14:37:11;;;;;;;10.90;4.43;;;;;;;;;;4991348;28;20038;-64
2021/06/13 14:39:37;;;;;;;8.88;4.22;;;;;;;;;;4986228;28;20034;-64
2021/06/13 14:42:04;;;;;;;9.57;4.13;;;;;;;;;;4972622;28;20085;-64